sensor_id;sensor_type;location;lat;lon;timestamp;pressure;altitude;pressure_sealevel;temperature
68027;BMP180;54819;48.030;14.710;2022-10-16T00:01:38;97649.20;;;13.00
68027;BMP180;54819;48.030;14.710;2022-10-16T00:04:05;97645.00;;;13.00
68027;BMP180;54819;48.030;14.710;2022-10-16T00:06:32;97638.60;;;13.00
68027;BMP180;54819;48.030;14.710;2022-10-16T00:09:00;97637.60;;;13.00
68027;BMP180;54819;48.030;14.710;2022-10-16T00:11:32;97631.60;;;13.00
68027;BMP180;54819;48.030;14.710;2022-10-16T00:14:03;97629.40;;;13.00
68027;BMP180;54819;48.030;14.710;2022-10-16T00:16:31;97626.20;;;13.00
68027;BMP180;54819;48.030;14.710;2022-10-16T00:18:58;97626.00;;;13.00
68027;BMP180;54819;48.030;14.710;2022-10-16T00:21:28;97623.80;;;13.00
68027;BMP180;54819;48.030;14.710;2022-10-16T00:24:05;97624.60;;;13.00
68027;BMP180;54819;48.030;14.710;2022-10-16T00:26:36;97617.60;;;13.00
68027;BMP180;54819;48.030;14.710;2022-10-16T00:29:04;97624.00;;;13.00
68027;BMP180;54819;48.030;14.710;2022-10-16T00:31:32;97631.60;;;12.96
68027;BMP180;54819;48.030;14.710;2022-10-16T00:33:59;97631.20;;;12.90
68027;BMP180;54819;48.030;14.710;2022-10-16T00:36:27;97631.00;;;12.82
68027;BMP180;54819;48.030;14.710;2022-10-16T00:38:56;97637.80;;;12.80
68027;BMP180;54819;48.030;14.710;2022-10-16T00:41:32;97638.00;;;12.80
68027;BMP180;54819;48.030;14.710;2022-10-16T00:44:03;97640.20;;;12.80
68027;BMP180;54819;48.030;14.710;2022-10-16T00:46:40;97648.20;;;12.70
68027;BMP180;54819;48.030;14.710;2022-10-16T00:49:13;97657.60;;;12.70
68027;BMP180;54819;48.030;14.710;2022-10-16T00:51:46;97656.60;;;12.70
68027;BMP180;54819;48.030;14.710;2022-10-16T00:54:33;97658.60;;;12.60
68027;BMP180;54819;48.030;14.710;2022-10-16T00:57:05;97659.40;;;12.60
68027;BMP180;54819;48.030;14.710;2022-10-16T00:59:39;97664.20;;;12.60
68027;BMP180;54819;48.030;14.710;2022-10-16T01:02:11;97668.60;;;12.64
68027;BMP180;54819;48.030;14.710;2022-10-16T01:04:49;97670.20;;;12.68
68027;BMP180;54819;48.030;14.710;2022-10-16T01:12:54;97664.00;;;12.66
68027;BMP180;54819;48.030;14.710;2022-10-16T01:15:32;97678.80;;;12.70
68027;BMP180;54819;48.030;14.710;2022-10-16T01:18:13;97672.40;;;12.70
68027;BMP180;54819;48.030;14.710;2022-10-16T01:20:54;97669.40;;;12.70
68027;BMP180;54819;48.030;14.710;2022-10-16T01:29:03;97666.20;;;12.70
68027;BMP180;54819;48.030;14.710;2022-10-16T01:31:39;97668.20;;;12.70
68027;BMP180;54819;48.030;14.710;2022-10-16T01:36:49;97670.40;;;12.80
68027;BMP180;54819;48.030;14.710;2022-10-16T01:39:22;97670.80;;;12.78
68027;BMP180;54819;48.030;14.710;2022-10-16T01:42:11;97675.60;;;12.80
68027;BMP180;54819;48.030;14.710;2022-10-16T01:44:40;97672.20;;;12.80
68027;BMP180;54819;48.030;14.710;2022-10-16T01:47:10;97670.00;;;12.80
68027;BMP180;54819;48.030;14.710;2022-10-16T01:49:42;97673.40;;;12.80
68027;BMP180;54819;48.030;14.710;2022-10-16T01:52:16;97675.00;;;12.88
68027;BMP180;54819;48.030;14.710;2022-10-16T01:54:47;97678.20;;;12.90
68027;BMP180;54819;48.030;14.710;2022-10-16T01:57:17;97673.60;;;12.90
68027;BMP180;54819;48.030;14.710;2022-10-16T01:59:56;97673.40;;;12.90
68027;BMP180;54819;48.030;14.710;2022-10-16T02:02:28;97675.00;;;12.90
68027;BMP180;54819;48.030;14.710;2022-10-16T02:07:40;97674.80;;;12.90
68027;BMP180;54819;48.030;14.710;2022-10-16T02:10:10;97674.20;;;12.90
68027;BMP180;54819;48.030;14.710;2022-10-16T02:12:42;97678.00;;;12.90
68027;BMP180;54819;48.030;14.710;2022-10-16T02:15:11;97675.60;;;12.86
68027;BMP180;54819;48.030;14.710;2022-10-16T02:17:38;97683.60;;;12.80
68027;BMP180;54819;48.030;14.710;2022-10-16T02:20:05;97689.00;;;12.70
68027;BMP180;54819;48.030;14.710;2022-10-16T02:22:37;97689.80;;;12.62
68027;BMP180;54819;48.030;14.710;2022-10-16T02:25:12;97690.80;;;12.52
68027;BMP180;54819;48.030;14.710;2022-10-16T02:28:08;97694.00;;;12.50
68027;BMP180;54819;48.030;14.710;2022-10-16T02:33:13;97697.60;;;12.50
68027;BMP180;54819;48.030;14.710;2022-10-16T02:35:43;97696.80;;;12.46
68027;BMP180;54819;48.030;14.710;2022-10-16T02:38:14;97698.60;;;12.40
68027;BMP180;54819;48.030;14.710;2022-10-16T02:40:42;97706.00;;;12.40
68027;BMP180;54819;48.030;14.710;2022-10-16T02:43:10;97711.60;;;12.40
68027;BMP180;54819;48.030;14.710;2022-10-16T02:45:38;97717.00;;;12.30
68027;BMP180;54819;48.030;14.710;2022-10-16T02:48:05;97721.60;;;12.28
68027;BMP180;54819;48.030;14.710;2022-10-16T02:50:32;97723.00;;;12.20
68027;BMP180;54819;48.030;14.710;2022-10-16T02:53:00;97722.80;;;12.20
68027;BMP180;54819;48.030;14.710;2022-10-16T02:55:27;97722.60;;;12.20
68027;BMP180;54819;48.030;14.710;2022-10-16T02:57:54;97721.40;;;12.20
68027;BMP180;54819;48.030;14.710;2022-10-16T03:00:22;97724.80;;;12.20
68027;BMP180;54819;48.030;14.710;2022-10-16T03:02:48;97720.20;;;12.10
68027;BMP180;54819;48.030;14.710;2022-10-16T03:05:16;97719.60;;;12.10
68027;BMP180;54819;48.030;14.710;2022-10-16T03:07:43;97716.00;;;12.10
68027;BMP180;54819;48.030;14.710;2022-10-16T03:10:10;97717.20;;;12.00
68027;BMP180;54819;48.030;14.710;2022-10-16T03:12:37;97720.60;;;12.00
68027;BMP180;54819;48.030;14.710;2022-10-16T03:15:05;97726.00;;;11.90
68027;BMP180;54819;48.030;14.710;2022-10-16T03:17:33;97726.00;;;11.90
68027;BMP180;54819;48.030;14.710;2022-10-16T03:20:00;97729.20;;;11.90
68027;BMP180;54819;48.030;14.710;2022-10-16T03:22:27;97730.20;;;11.90
68027;BMP180;54819;48.030;14.710;2022-10-16T03:24:54;97733.40;;;11.90
68027;BMP180;54819;48.030;14.710;2022-10-16T03:27:21;97728.60;;;11.90
68027;BMP180;54819;48.030;14.710;2022-10-16T03:29:48;97721.80;;;11.90
68027;BMP180;54819;48.030;14.710;2022-10-16T03:32:14;97726.20;;;11.80
68027;BMP180;54819;48.030;14.710;2022-10-16T03:34:41;97725.00;;;11.80
68027;BMP180;54819;48.030;14.710;2022-10-16T03:37:08;97730.40;;;11.80
68027;BMP180;54819;48.030;14.710;2022-10-16T03:39:35;97734.60;;;11.70
68027;BMP180;54819;48.030;14.710;2022-10-16T03:42:02;97735.00;;;11.70
68027;BMP180;54819;48.030;14.710;2022-10-16T03:44:29;97739.80;;;11.70
68027;BMP180;54819;48.030;14.710;2022-10-16T03:46:56;97745.80;;;11.60
68027;BMP180;54819;48.030;14.710;2022-10-16T03:49:22;97747.80;;;11.60
68027;BMP180;54819;48.030;14.710;2022-10-16T03:51:49;97752.60;;;11.56
68027;BMP180;54819;48.030;14.710;2022-10-16T03:54:16;97749.60;;;11.50
68027;BMP180;54819;48.030;14.710;2022-10-16T03:56:43;97760.40;;;11.56
68027;BMP180;54819;48.030;14.710;2022-10-16T03:59:10;97760.40;;;11.60
68027;BMP180;54819;48.030;14.710;2022-10-16T04:01:37;97769.60;;;11.60
68027;BMP180;54819;48.030;14.710;2022-10-16T04:04:03;97766.20;;;11.60
68027;BMP180;54819;48.030;14.710;2022-10-16T04:06:30;97766.40;;;11.60
68027;BMP180;54819;48.030;14.710;2022-10-16T04:08:57;97768.80;;;11.66
68027;BMP180;54819;48.030;14.710;2022-10-16T04:11:24;97777.60;;;11.70
68027;BMP180;54819;48.030;14.710;2022-10-16T04:13:51;97776.00;;;11.70
68027;BMP180;54819;48.030;14.710;2022-10-16T04:16:18;97772.80;;;11.70
68027;BMP180;54819;48.030;14.710;2022-10-16T04:18:45;97762.00;;;11.76
68027;BMP180;54819;48.030;14.710;2022-10-16T04:21:12;97757.40;;;11.80
68027;BMP180;54819;48.030;14.710;2022-10-16T04:23:39;97760.20;;;11.80
68027;BMP180;54819;48.030;14.710;2022-10-16T04:26:06;97765.60;;;11.70
68027;BMP180;54819;48.030;14.710;2022-10-16T04:28:33;97768.80;;;11.70
68027;BMP180;54819;48.030;14.710;2022-10-16T04:31:04;97769.00;;;11.60
68027;BMP180;54819;48.030;14.710;2022-10-16T04:33:31;97775.60;;;11.50
68027;BMP180;54819;48.030;14.710;2022-10-16T04:36:01;97776.80;;;11.40
68027;BMP180;54819;48.030;14.710;2022-10-16T04:38:28;97782.00;;;11.30
68027;BMP180;54819;48.030;14.710;2022-10-16T04:40:55;97779.80;;;11.30
68027;BMP180;54819;48.030;14.710;2022-10-16T04:43:23;97779.60;;;11.30
68027;BMP180;54819;48.030;14.710;2022-10-16T04:45:50;97776.80;;;11.22
68027;BMP180;54819;48.030;14.710;2022-10-16T04:48:18;97781.00;;;11.20
68027;BMP180;54819;48.030;14.710;2022-10-16T04:50:45;97787.20;;;11.20
68027;BMP180;54819;48.030;14.710;2022-10-16T04:53:19;97792.00;;;11.22
68027;BMP180;54819;48.030;14.710;2022-10-16T04:55:46;97791.80;;;11.30
68027;BMP180;54819;48.030;14.710;2022-10-16T04:58:13;97795.00;;;11.30
68027;BMP180;54819;48.030;14.710;2022-10-16T05:00:40;97797.60;;;11.30
68027;BMP180;54819;48.030;14.710;2022-10-16T05:03:07;97792.00;;;11.30
68027;BMP180;54819;48.030;14.710;2022-10-16T05:05:36;97789.00;;;11.30
68027;BMP180;54819;48.030;14.710;2022-10-16T05:08:03;97792.40;;;11.32
68027;BMP180;54819;48.030;14.710;2022-10-16T05:10:30;97787.00;;;11.32
68027;BMP180;54819;48.030;14.710;2022-10-16T05:12:57;97788.00;;;11.34
68027;BMP180;54819;48.030;14.710;2022-10-16T05:15:24;97778.20;;;11.38
68027;BMP180;54819;48.030;14.710;2022-10-16T05:17:54;97771.20;;;11.38
68027;BMP180;54819;48.030;14.710;2022-10-16T05:20:22;97763.60;;;11.40
68027;BMP180;54819;48.030;14.710;2022-10-16T05:22:49;97760.80;;;11.34
68027;BMP180;54819;48.030;14.710;2022-10-16T05:25:17;97762.00;;;11.40
68027;BMP180;54819;48.030;14.710;2022-10-16T05:27:48;97764.00;;;11.40
68027;BMP180;54819;48.030;14.710;2022-10-16T05:30:17;97757.00;;;11.40
68027;BMP180;54819;48.030;14.710;2022-10-16T05:32:49;97761.60;;;11.40
68027;BMP180;54819;48.030;14.710;2022-10-16T05:35:18;97760.80;;;11.40
68027;BMP180;54819;48.030;14.710;2022-10-16T05:37:46;97760.60;;;11.34
68027;BMP180;54819;48.030;14.710;2022-10-16T05:40:14;97767.20;;;11.30
68027;BMP180;54819;48.030;14.710;2022-10-16T05:42:41;97772.40;;;11.30
68027;BMP180;54819;48.030;14.710;2022-10-16T05:45:10;97777.00;;;11.30
68027;BMP180;54819;48.030;14.710;2022-10-16T05:47:39;97785.00;;;11.20
68027;BMP180;54819;48.030;14.710;2022-10-16T05:50:07;97792.60;;;11.20
68027;BMP180;54819;48.030;14.710;2022-10-16T05:52:34;97797.00;;;11.20
68027;BMP180;54819;48.030;14.710;2022-10-16T05:55:01;97798.80;;;11.10
68027;BMP180;54819;48.030;14.710;2022-10-16T05:57:28;97801.40;;;11.10
68027;BMP180;54819;48.030;14.710;2022-10-16T05:59:55;97803.40;;;11.14
68027;BMP180;54819;48.030;14.710;2022-10-16T06:02:22;97812.80;;;11.20
68027;BMP180;54819;48.030;14.710;2022-10-16T06:04:51;97820.40;;;11.10
68027;BMP180;54819;48.030;14.710;2022-10-16T06:07:21;97827.40;;;11.10
68027;BMP180;54819;48.030;14.710;2022-10-16T06:09:50;97831.00;;;11.18
68027;BMP180;54819;48.030;14.710;2022-10-16T06:12:18;97838.60;;;11.20
68027;BMP180;54819;48.030;14.710;2022-10-16T06:14:46;97843.60;;;11.20
68027;BMP180;54819;48.030;14.710;2022-10-16T06:17:15;97840.60;;;11.30
68027;BMP180;54819;48.030;14.710;2022-10-16T06:19:42;97840.20;;;11.40
68027;BMP180;54819;48.030;14.710;2022-10-16T06:22:09;97852.40;;;11.50
68027;BMP180;54819;48.030;14.710;2022-10-16T06:24:36;97856.80;;;11.60
68027;BMP180;54819;48.030;14.710;2022-10-16T06:27:04;97859.20;;;11.70
68027;BMP180;54819;48.030;14.710;2022-10-16T06:29:31;97856.60;;;11.80
68027;BMP180;54819;48.030;14.710;2022-10-16T06:31:58;97856.60;;;11.90
68027;BMP180;54819;48.030;14.710;2022-10-16T06:34:25;97865.00;;;12.00
68027;BMP180;54819;48.030;14.710;2022-10-16T06:36:51;97870.80;;;12.10
68027;BMP180;54819;48.030;14.710;2022-10-16T06:39:18;97874.20;;;12.18
68027;BMP180;54819;48.030;14.710;2022-10-16T06:41:45;97877.60;;;12.22
68027;BMP180;54819;48.030;14.710;2022-10-16T06:44:14;97875.00;;;12.30
68027;BMP180;54819;48.030;14.710;2022-10-16T06:46:41;97876.60;;;12.32
68027;BMP180;54819;48.030;14.710;2022-10-16T06:49:08;97874.60;;;12.40
68027;BMP180;54819;48.030;14.710;2022-10-16T06:51:35;97873.80;;;12.46
68027;BMP180;54819;48.030;14.710;2022-10-16T06:54:09;97879.60;;;12.50
68027;BMP180;54819;48.030;14.710;2022-10-16T06:56:36;97884.20;;;12.52
68027;BMP180;54819;48.030;14.710;2022-10-16T06:59:04;97887.80;;;12.60
68027;BMP180;54819;48.030;14.710;2022-10-16T07:01:32;97887.00;;;12.66
68027;BMP180;54819;48.030;14.710;2022-10-16T07:04:00;97884.40;;;12.70
68027;BMP180;54819;48.030;14.710;2022-10-16T07:06:32;97887.40;;;12.70
68027;BMP180;54819;48.030;14.710;2022-10-16T07:09:06;97887.60;;;12.80
68027;BMP180;54819;48.030;14.710;2022-10-16T07:11:34;97893.80;;;12.80
68027;BMP180;54819;48.030;14.710;2022-10-16T07:14:03;97896.20;;;12.90
68027;BMP180;54819;48.030;14.710;2022-10-16T07:16:32;97900.20;;;12.90
68027;BMP180;54819;48.030;14.710;2022-10-16T07:19:01;97905.40;;;12.90
68027;BMP180;54819;48.030;14.710;2022-10-16T07:21:33;97907.60;;;12.98
68027;BMP180;54819;48.030;14.710;2022-10-16T07:24:06;97912.20;;;13.00
68027;BMP180;54819;48.030;14.710;2022-10-16T07:26:36;97908.00;;;13.10
68027;BMP180;54819;48.030;14.710;2022-10-16T07:29:03;97908.00;;;13.14
68027;BMP180;54819;48.030;14.710;2022-10-16T07:31:31;97907.40;;;13.20
68027;BMP180;54819;48.030;14.710;2022-10-16T07:33:59;97910.40;;;13.30
68027;BMP180;54819;48.030;14.710;2022-10-16T07:36:26;97910.40;;;13.40
68027;BMP180;54819;48.030;14.710;2022-10-16T07:38:54;97910.00;;;13.50
68027;BMP180;54819;48.030;14.710;2022-10-16T07:41:27;97908.80;;;13.60
68027;BMP180;54819;48.030;14.710;2022-10-16T07:43:56;97908.40;;;13.70
68027;BMP180;54819;48.030;14.710;2022-10-16T07:46:27;97913.80;;;13.72
68027;BMP180;54819;48.030;14.710;2022-10-16T07:48:54;97904.60;;;13.90
68027;BMP180;54819;48.030;14.710;2022-10-16T07:51:24;97900.20;;;13.98
68027;BMP180;54819;48.030;14.710;2022-10-16T07:53:52;97907.20;;;14.10
68027;BMP180;54819;48.030;14.710;2022-10-16T07:56:20;97910.40;;;14.14
68027;BMP180;54819;48.030;14.710;2022-10-16T07:58:47;97914.20;;;14.20
68027;BMP180;54819;48.030;14.710;2022-10-16T08:01:17;97908.00;;;14.30
68027;BMP180;54819;48.030;14.710;2022-10-16T08:03:48;97905.20;;;14.40
68027;BMP180;54819;48.030;14.710;2022-10-16T08:06:17;97902.40;;;14.50
68027;BMP180;54819;48.030;14.710;2022-10-16T08:08:49;97903.20;;;14.60
68027;BMP180;54819;48.030;14.710;2022-10-16T08:11:17;97905.80;;;14.70
68027;BMP180;54819;48.030;14.710;2022-10-16T08:13:44;97909.40;;;14.80
68027;BMP180;54819;48.030;14.710;2022-10-16T08:16:10;97909.80;;;14.90
68027;BMP180;54819;48.030;14.710;2022-10-16T08:18:40;97906.60;;;15.02
68027;BMP180;54819;48.030;14.710;2022-10-16T08:21:13;97904.80;;;15.12
68027;BMP180;54819;48.030;14.710;2022-10-16T08:23:51;97907.40;;;15.24
68027;BMP180;54819;48.030;14.710;2022-10-16T08:26:25;97911.20;;;15.32
68027;BMP180;54819;48.030;14.710;2022-10-16T08:28:53;97912.80;;;15.50
68027;BMP180;54819;48.030;14.710;2022-10-16T08:31:21;97916.80;;;15.60
68027;BMP180;54819;48.030;14.710;2022-10-16T08:33:48;97919.00;;;15.70
68027;BMP180;54819;48.030;14.710;2022-10-16T08:36:16;97921.60;;;15.80
68027;BMP180;54819;48.030;14.710;2022-10-16T08:38:43;97917.60;;;15.90
68027;BMP180;54819;48.030;14.710;2022-10-16T08:41:34;97919.60;;;16.00
68027;BMP180;54819;48.030;14.710;2022-10-16T08:49:36;97917.40;;;16.32
68027;BMP180;54819;48.030;14.710;2022-10-16T08:52:10;97923.60;;;16.40
68027;BMP180;54819;48.030;14.710;2022-10-16T08:54:44;97922.00;;;16.50
68027;BMP180;54819;48.030;14.710;2022-10-16T08:57:19;97920.40;;;16.60
68027;BMP180;54819;48.030;14.710;2022-10-16T08:59:51;97921.40;;;16.62
68027;BMP180;54819;48.030;14.710;2022-10-16T09:02:31;97928.20;;;16.70
68027;BMP180;54819;48.030;14.710;2022-10-16T09:07:49;97930.60;;;16.82
68027;BMP180;54819;48.030;14.710;2022-10-16T09:10:41;97927.20;;;16.86
68027;BMP180;54819;48.030;14.710;2022-10-16T09:16:29;97921.60;;;17.10
68027;BMP180;54819;48.030;14.710;2022-10-16T09:19:36;97928.00;;;17.10
68027;BMP180;54819;48.030;14.710;2022-10-16T09:22:16;97928.80;;;17.20
68027;BMP180;54819;48.030;14.710;2022-10-16T09:24:44;97925.00;;;17.20
68027;BMP180;54819;48.030;14.710;2022-10-16T09:27:14;97929.40;;;17.30
68027;BMP180;54819;48.030;14.710;2022-10-16T09:29:41;97934.20;;;17.34
68027;BMP180;54819;48.030;14.710;2022-10-16T09:32:17;97939.60;;;17.40
68027;BMP180;54819;48.030;14.710;2022-10-16T09:34:52;97941.00;;;17.50
68027;BMP180;54819;48.030;14.710;2022-10-16T09:37:22;97945.40;;;17.58
68027;BMP180;54819;48.030;14.710;2022-10-16T09:39:54;97946.60;;;17.60
68027;BMP180;54819;48.030;14.710;2022-10-16T09:42:35;97949.20;;;17.70
68027;BMP180;54819;48.030;14.710;2022-10-16T09:45:04;97942.60;;;17.80
68027;BMP180;54819;48.030;14.710;2022-10-16T09:47:31;97943.20;;;17.90
68027;BMP180;54819;48.030;14.710;2022-10-16T09:50:20;97942.60;;;17.98
68027;BMP180;54819;48.030;14.710;2022-10-16T09:52:48;97944.80;;;18.00
68027;BMP180;54819;48.030;14.710;2022-10-16T09:55:18;97941.00;;;18.10
68027;BMP180;54819;48.030;14.710;2022-10-16T09:57:55;97947.00;;;18.20
68027;BMP180;54819;48.030;14.710;2022-10-16T10:00:23;97944.40;;;18.30
68027;BMP180;54819;48.030;14.710;2022-10-16T10:02:52;97937.00;;;18.30
68027;BMP180;54819;48.030;14.710;2022-10-16T10:05:27;97941.60;;;18.40
68027;BMP180;54819;48.030;14.710;2022-10-16T10:07:58;97940.60;;;18.50
68027;BMP180;54819;48.030;14.710;2022-10-16T10:10:32;97938.80;;;18.60
68027;BMP180;54819;48.030;14.710;2022-10-16T10:13:00;97934.20;;;18.70
68027;BMP180;54819;48.030;14.710;2022-10-16T10:15:34;97933.60;;;18.70
68027;BMP180;54819;48.030;14.710;2022-10-16T10:18:20;97933.20;;;18.80
68027;BMP180;54819;48.030;14.710;2022-10-16T10:21:03;97933.80;;;18.90
68027;BMP180;54819;48.030;14.710;2022-10-16T10:23:32;97937.60;;;19.00
68027;BMP180;54819;48.030;14.710;2022-10-16T10:26:10;97940.20;;;19.00
68027;BMP180;54819;48.030;14.710;2022-10-16T10:31:57;97940.20;;;19.20
68027;BMP180;54819;48.030;14.710;2022-10-16T10:41:27;97938.20;;;19.40
68027;BMP180;54819;48.030;14.710;2022-10-16T10:47:59;97945.40;;;19.50
68027;BMP180;54819;48.030;14.710;2022-10-16T10:50:44;97938.40;;;19.70
68027;BMP180;54819;48.030;14.710;2022-10-16T10:53:52;97944.20;;;19.90
68027;BMP180;54819;48.030;14.710;2022-10-16T11:08:38;97946.40;;;20.00
68027;BMP180;54819;48.030;14.710;2022-10-16T11:11:38;97940.80;;;20.10
68027;BMP180;54819;48.030;14.710;2022-10-16T11:14:23;97940.40;;;20.16
68027;BMP180;54819;48.030;14.710;2022-10-16T11:16:58;97937.00;;;20.20
68027;BMP180;54819;48.030;14.710;2022-10-16T11:20:13;97931.20;;;20.20
68027;BMP180;54819;48.030;14.710;2022-10-16T11:22:50;97928.40;;;20.28
68027;BMP180;54819;48.030;14.710;2022-10-16T11:25:28;97923.20;;;20.30
68027;BMP180;54819;48.030;14.710;2022-10-16T11:28:17;97922.00;;;20.30
68027;BMP180;54819;48.030;14.710;2022-10-16T11:31:08;97920.20;;;20.30
68027;BMP180;54819;48.030;14.710;2022-10-16T11:33:51;97920.40;;;20.40
68027;BMP180;54819;48.030;14.710;2022-10-16T11:37:08;97917.20;;;20.40
68027;BMP180;54819;48.030;14.710;2022-10-16T11:39:39;97913.60;;;20.50
68027;BMP180;54819;48.030;14.710;2022-10-16T11:42:24;97909.20;;;20.50
68027;BMP180;54819;48.030;14.710;2022-10-16T11:45:14;97910.00;;;20.60
68027;BMP180;54819;48.030;14.710;2022-10-16T11:47:48;97908.80;;;20.70
68027;BMP180;54819;48.030;14.710;2022-10-16T11:50:31;97907.60;;;20.72
68027;BMP180;54819;48.030;14.710;2022-10-16T11:56:00;97912.00;;;20.90
68027;BMP180;54819;48.030;14.710;2022-10-16T11:58:42;97911.80;;;20.90
68027;BMP180;54819;48.030;14.710;2022-10-16T12:04:12;97915.60;;;21.10
68027;BMP180;54819;48.030;14.710;2022-10-16T12:09:31;97910.80;;;21.20
68027;BMP180;54819;48.030;14.710;2022-10-16T12:11:59;97912.20;;;21.26
68027;BMP180;54819;48.030;14.710;2022-10-16T12:19:30;97910.40;;;21.40
68027;BMP180;54819;48.030;14.710;2022-10-16T12:22:01;97912.60;;;21.40
68027;BMP180;54819;48.030;14.710;2022-10-16T12:24:35;97901.80;;;21.48
68027;BMP180;54819;48.030;14.710;2022-10-16T12:27:17;97898.60;;;21.50
68027;BMP180;54819;48.030;14.710;2022-10-16T12:29:47;97901.40;;;21.60
68027;BMP180;54819;48.030;14.710;2022-10-16T12:32:31;97898.00;;;21.60
68027;BMP180;54819;48.030;14.710;2022-10-16T12:35:27;97902.80;;;21.60
68027;BMP180;54819;48.030;14.710;2022-10-16T12:41:05;97905.20;;;21.60
68027;BMP180;54819;48.030;14.710;2022-10-16T12:43:41;97904.40;;;21.60
68027;BMP180;54819;48.030;14.710;2022-10-16T12:48:44;97908.00;;;21.70
68027;BMP180;54819;48.030;14.710;2022-10-16T12:54:34;97918.20;;;21.70
68027;BMP180;54819;48.030;14.710;2022-10-16T12:57:41;97917.40;;;21.70
68027;BMP180;54819;48.030;14.710;2022-10-16T13:00:21;97923.80;;;21.80
68027;BMP180;54819;48.030;14.710;2022-10-16T13:06:19;97925.00;;;21.80
68027;BMP180;54819;48.030;14.710;2022-10-16T13:09:02;97922.40;;;21.80
68027;BMP180;54819;48.030;14.710;2022-10-16T13:12:00;97924.40;;;21.82
68027;BMP180;54819;48.030;14.710;2022-10-16T13:21:01;97925.80;;;21.90
68027;BMP180;54819;48.030;14.710;2022-10-16T13:23:38;97925.40;;;21.84
68027;BMP180;54819;48.030;14.710;2022-10-16T13:28:53;97931.80;;;21.90
68027;BMP180;54819;48.030;14.710;2022-10-16T13:31:23;97934.00;;;21.90
68027;BMP180;54819;48.030;14.710;2022-10-16T13:33:56;97939.40;;;21.90
68027;BMP180;54819;48.030;14.710;2022-10-16T13:36:29;97938.00;;;21.90
68027;BMP180;54819;48.030;14.710;2022-10-16T13:42:21;97941.40;;;21.90
68027;BMP180;54819;48.030;14.710;2022-10-16T13:44:55;97945.20;;;21.90
68027;BMP180;54819;48.030;14.710;2022-10-16T13:47:27;97948.40;;;21.90
68027;BMP180;54819;48.030;14.710;2022-10-16T13:50:00;97955.80;;;21.98
68027;BMP180;54819;48.030;14.710;2022-10-16T13:52:28;97956.40;;;21.90
68027;BMP180;54819;48.030;14.710;2022-10-16T13:54:55;97957.80;;;21.90
68027;BMP180;54819;48.030;14.710;2022-10-16T13:57:28;97952.80;;;21.90
68027;BMP180;54819;48.030;14.710;2022-10-16T13:59:55;97951.40;;;21.90
68027;BMP180;54819;48.030;14.710;2022-10-16T14:02:35;97950.40;;;21.90
68027;BMP180;54819;48.030;14.710;2022-10-16T14:05:08;97954.80;;;21.88
68027;BMP180;54819;48.030;14.710;2022-10-16T14:07:37;97960.40;;;21.80
68027;BMP180;54819;48.030;14.710;2022-10-16T14:10:22;97963.40;;;21.80
68027;BMP180;54819;48.030;14.710;2022-10-16T14:13:04;97955.60;;;21.80
68027;BMP180;54819;48.030;14.710;2022-10-16T14:15:34;97960.40;;;21.80
68027;BMP180;54819;48.030;14.710;2022-10-16T14:18:03;97961.20;;;21.80
68027;BMP180;54819;48.030;14.710;2022-10-16T14:20:33;97961.20;;;21.80
68027;BMP180;54819;48.030;14.710;2022-10-16T14:23:04;97964.40;;;21.80
68027;BMP180;54819;48.030;14.710;2022-10-16T14:25:45;97959.60;;;21.80
68027;BMP180;54819;48.030;14.710;2022-10-16T14:28:21;97960.60;;;21.80
68027;BMP180;54819;48.030;14.710;2022-10-16T14:30:55;97961.60;;;21.72
68027;BMP180;54819;48.030;14.710;2022-10-16T14:36:14;97965.60;;;21.62
68027;BMP180;54819;48.030;14.710;2022-10-16T14:39:04;97963.40;;;21.60
68027;BMP180;54819;48.030;14.710;2022-10-16T14:41:52;97963.40;;;21.60
68027;BMP180;54819;48.030;14.710;2022-10-16T14:44:29;97962.00;;;21.60
68027;BMP180;54819;48.030;14.710;2022-10-16T14:47:07;97969.00;;;21.50
68027;BMP180;54819;48.030;14.710;2022-10-16T14:49:35;97969.80;;;21.48
68027;BMP180;54819;48.030;14.710;2022-10-16T14:52:10;97969.60;;;21.50
68027;BMP180;54819;48.030;14.710;2022-10-16T14:54:38;97977.60;;;21.40
68027;BMP180;54819;48.030;14.710;2022-10-16T14:57:05;97978.60;;;21.40
68027;BMP180;54819;48.030;14.710;2022-10-16T14:59:35;97982.20;;;21.30
68027;BMP180;54819;48.030;14.710;2022-10-16T15:02:22;97984.80;;;21.30
68027;BMP180;54819;48.030;14.710;2022-10-16T15:04:51;97985.80;;;21.30
68027;BMP180;54819;48.030;14.710;2022-10-16T15:07:18;97986.60;;;21.20
68027;BMP180;54819;48.030;14.710;2022-10-16T15:09:45;97987.00;;;21.20
68027;BMP180;54819;48.030;14.710;2022-10-16T15:12:16;97985.20;;;21.10
68027;BMP180;54819;48.030;14.710;2022-10-16T15:14:43;97984.00;;;21.10
68027;BMP180;54819;48.030;14.710;2022-10-16T15:17:11;97984.00;;;21.00
68027;BMP180;54819;48.030;14.710;2022-10-16T15:19:38;97983.00;;;20.98
68027;BMP180;54819;48.030;14.710;2022-10-16T15:22:05;97984.80;;;20.90
68027;BMP180;54819;48.030;14.710;2022-10-16T15:24:32;97987.60;;;20.80
68027;BMP180;54819;48.030;14.710;2022-10-16T15:26:59;97988.40;;;20.80
68027;BMP180;54819;48.030;14.710;2022-10-16T15:29:26;97991.60;;;20.70
68027;BMP180;54819;48.030;14.710;2022-10-16T15:31:52;97996.20;;;20.60
68027;BMP180;54819;48.030;14.710;2022-10-16T15:34:19;97995.40;;;20.54
68027;BMP180;54819;48.030;14.710;2022-10-16T15:36:46;98000.60;;;20.40
68027;BMP180;54819;48.030;14.710;2022-10-16T15:39:17;98006.40;;;20.30
68027;BMP180;54819;48.030;14.710;2022-10-16T15:41:47;98005.20;;;20.20
68027;BMP180;54819;48.030;14.710;2022-10-16T15:44:21;98013.20;;;20.14
68027;BMP180;54819;48.030;14.710;2022-10-16T15:46:50;98008.20;;;20.10
68027;BMP180;54819;48.030;14.710;2022-10-16T15:49:17;98012.00;;;20.00
68027;BMP180;54819;48.030;14.710;2022-10-16T15:51:44;98013.20;;;19.86
68027;BMP180;54819;48.030;14.710;2022-10-16T15:54:12;98018.00;;;19.70
68027;BMP180;54819;48.030;14.710;2022-10-16T15:56:39;98020.60;;;19.70
68027;BMP180;54819;48.030;14.710;2022-10-16T15:59:06;98022.00;;;19.60
68027;BMP180;54819;48.030;14.710;2022-10-16T16:01:35;98024.80;;;19.50